createdAt,value
2022-12-05T00:00:11.663Z,23.73
2022-12-05T00:02:38.932Z,25.07
2022-12-05T00:05:06.332Z,21.30
2022-12-05T00:07:33.491Z,24.87
2022-12-05T00:10:00.706Z,19.70
2022-12-05T00:12:27.927Z,20.73
2022-12-05T00:14:55.022Z,22.70
2022-12-05T00:17:22.180Z,23.47
2022-12-05T00:19:53.718Z,21.73
2022-12-05T00:22:23.789Z,21.30
2022-12-05T00:24:50.967Z,22.50
2022-12-05T00:27:17.995Z,22.07
2022-12-05T00:29:45.276Z,23.80
2022-12-05T00:32:12.480Z,20.87
2022-12-05T00:34:39.624Z,19.57
2022-12-05T00:37:06.687Z,21.07
2022-12-05T00:39:33.780Z,23.80
2022-12-05T00:42:00.871Z,20.80
2022-12-05T00:44:27.905Z,16.13
2022-12-05T00:46:54.961Z,21.53
2022-12-05T00:49:22.047Z,21.80
2022-12-05T00:51:49.180Z,19.53
2022-12-05T00:54:16.944Z,24.53
2022-12-05T00:56:44.867Z,19.93
2022-12-05T00:59:16.713Z,24.13
2022-12-05T01:01:44.718Z,18.40
2022-12-05T01:04:17.397Z,19.63
2022-12-05T01:06:44.606Z,23.10
2022-12-05T01:09:15.884Z,22.67
2022-12-05T01:11:43.752Z,23.73
2022-12-05T01:14:11.388Z,20.40
2022-12-05T01:16:39.736Z,23.07
2022-12-05T01:19:08.380Z,22.27
2022-12-05T01:21:35.511Z,20.57
2022-12-05T01:24:02.659Z,20.10
2022-12-05T01:26:29.877Z,20.47
2022-12-05T01:28:57.270Z,20.60
2022-12-05T01:31:26.140Z,20.93
2022-12-05T01:33:54.075Z,20.03
2022-12-05T01:36:21.618Z,18.00
2022-12-05T01:38:48.793Z,19.73
2022-12-05T01:41:17.372Z,20.10
2022-12-05T01:43:53.978Z,19.67
2022-12-05T01:46:21.176Z,19.83
2022-12-05T01:48:48.959Z,24.87
2022-12-05T01:51:16.353Z,20.50
2022-12-05T01:53:43.486Z,19.77
2022-12-05T01:56:10.950Z,22.17
2022-12-05T01:58:39.489Z,19.70
2022-12-05T02:01:06.800Z,21.83
2022-12-05T02:03:34.597Z,18.67
2022-12-05T02:06:02.321Z,17.00
2022-12-05T02:08:29.478Z,21.00
2022-12-05T02:10:57.539Z,19.20
2022-12-05T02:13:43.452Z,21.43
2022-12-05T02:16:29.495Z,20.13
2022-12-05T02:19:16.849Z,18.70
2022-12-05T02:21:55.870Z,17.13
2022-12-05T02:24:32.832Z,19.33
2022-12-05T02:27:04.751Z,18.67
2022-12-05T02:29:46.807Z,18.63
2022-12-05T02:32:22.863Z,18.07
2022-12-05T02:34:52.692Z,19.83
2022-12-05T02:37:48.860Z,20.80
2022-12-05T02:40:15.876Z,16.63
2022-12-05T02:42:46.837Z,17.97
2022-12-05T02:45:15.828Z,18.90
2022-12-05T02:47:46.221Z,18.87
2022-12-05T02:50:15.076Z,20.50
2022-12-05T02:52:42.790Z,18.20
2022-12-05T02:55:10.386Z,18.10
2022-12-05T02:57:38.200Z,19.60
2022-12-05T03:00:06.606Z,19.80
2022-12-05T03:02:35.450Z,18.07
2022-12-05T03:05:09.973Z,19.80
2022-12-05T03:07:38.152Z,17.67
2022-12-05T03:10:08.581Z,21.93
2022-12-05T03:12:39.781Z,18.97
2022-12-05T03:15:09.431Z,21.17
2022-12-05T03:17:38.934Z,19.23
2022-12-05T03:20:09.920Z,21.47
2022-12-05T03:22:48.816Z,24.57
2022-12-05T03:25:16.101Z,27.40
2022-12-05T03:27:52.110Z,38.27
2022-12-05T03:30:20.316Z,43.63
2022-12-05T03:32:56.602Z,42.10
2022-12-05T03:35:32.587Z,29.33
2022-12-05T03:38:15.011Z,19.53
2022-12-05T03:40:45.050Z,28.97
2022-12-05T03:43:27.196Z,21.00
2022-12-05T03:46:14.536Z,21.07
2022-12-05T03:48:44.774Z,20.63
2022-12-05T03:51:14.360Z,21.57
2022-12-05T03:53:44.721Z,21.43
2022-12-05T03:56:15.311Z,21.53
2022-12-05T03:58:52.269Z,20.67
2022-12-05T04:01:20.456Z,18.83
2022-12-05T04:03:51.878Z,21.47
2022-12-05T04:06:27.845Z,18.57
2022-12-05T04:08:57.028Z,22.87
2022-12-05T04:11:25.195Z,23.27
2022-12-05T04:13:56.661Z,21.17
2022-12-05T04:16:44.675Z,21.23
2022-12-05T04:19:16.131Z,20.30
2022-12-05T04:21:45.704Z,20.43
2022-12-05T04:24:42.035Z,19.93
2022-12-05T04:27:15.628Z,19.40
2022-12-05T04:30:00.510Z,17.33
2022-12-05T04:32:31.453Z,18.03
2022-12-05T04:35:02.221Z,18.27
2022-12-05T04:37:32.423Z,18.00
2022-12-05T04:40:02.307Z,16.73
2022-12-05T04:42:30.841Z,21.07
2022-12-05T04:45:01.154Z,19.83
2022-12-05T04:47:30.493Z,19.50
2022-12-05T04:49:58.302Z,20.17
2022-12-05T04:52:28.074Z,22.80
2022-12-05T04:55:09.744Z,21.27
2022-12-05T04:57:55.093Z,22.87
2022-12-05T05:00:22.442Z,18.87
2022-12-05T05:02:55.357Z,19.10
2022-12-05T05:05:23.130Z,22.70
2022-12-05T05:07:53.523Z,17.80
2022-12-05T05:10:23.407Z,20.93
2022-12-05T05:12:50.393Z,17.53
2022-12-05T05:15:17.573Z,16.27
2022-12-05T05:17:44.783Z,19.43
2022-12-05T05:20:24.086Z,21.17
2022-12-05T05:22:51.978Z,20.73
2022-12-05T05:25:19.671Z,22.33
2022-12-05T05:27:50.931Z,19.37
2022-12-05T05:30:18.532Z,19.83
2022-12-05T05:32:45.753Z,16.80
2022-12-05T05:35:13.405Z,20.10
2022-12-05T05:37:40.815Z,20.23
2022-12-05T05:40:11.129Z,22.47
2022-12-05T05:42:42.694Z,19.80
2022-12-05T05:45:10.267Z,20.30
2022-12-05T05:47:37.292Z,23.33
2022-12-05T05:50:04.787Z,20.70
2022-12-05T05:52:33.813Z,17.97
2022-12-05T05:55:08.785Z,19.13
2022-12-05T05:57:36.146Z,18.87
2022-12-05T06:00:05.487Z,19.90
2022-12-05T06:02:33.672Z,18.27
2022-12-05T06:05:00.884Z,18.93
2022-12-05T06:07:28.509Z,20.43
2022-12-05T06:09:55.943Z,21.57
2022-12-05T06:12:23.644Z,20.63
2022-12-05T06:14:51.377Z,19.83
2022-12-05T06:17:18.729Z,21.17
2022-12-05T06:19:45.792Z,21.70
2022-12-05T06:22:12.858Z,18.00
2022-12-05T06:24:39.962Z,21.43
2022-12-05T06:27:07.056Z,21.80
2022-12-05T06:29:34.648Z,18.73
2022-12-05T06:32:01.869Z,22.03
2022-12-05T06:34:29.149Z,21.20
2022-12-05T06:36:56.198Z,22.77
2022-12-05T06:39:23.477Z,21.90
2022-12-05T06:41:50.728Z,21.27
2022-12-05T06:44:17.854Z,21.63
2022-12-05T06:46:45.079Z,31.50
2022-12-05T06:49:12.253Z,29.70
2022-12-05T06:51:39.287Z,33.63
2022-12-05T06:54:06.358Z,42.50
2022-12-05T06:56:33.447Z,29.53
2022-12-05T06:59:00.555Z,27.70
2022-12-05T07:01:41.095Z,23.93
2022-12-05T07:04:08.621Z,20.07
2022-12-05T07:06:35.832Z,21.67
2022-12-05T07:09:03.164Z,23.20
2022-12-05T07:11:30.426Z,20.50
2022-12-05T07:13:57.784Z,21.37
2022-12-05T07:16:25.250Z,24.17
2022-12-05T07:18:52.367Z,21.63
2022-12-05T07:21:21.568Z,24.83
2022-12-05T07:23:52.588Z,22.37
2022-12-05T07:26:21.363Z,21.27
2022-12-05T07:28:48.874Z,22.07
2022-12-05T07:31:20.520Z,22.47
2022-12-05T07:33:47.610Z,20.07
2022-12-05T07:36:15.982Z,23.60
2022-12-05T07:38:43.956Z,21.53
2022-12-05T07:41:30.470Z,21.63
2022-12-05T07:43:58.129Z,20.37
2022-12-05T07:46:25.901Z,21.30
2022-12-05T07:48:53.199Z,24.30
2022-12-05T07:51:20.550Z,23.80
2022-12-05T07:53:48.165Z,24.23
2022-12-05T07:56:17.161Z,25.03
2022-12-05T07:58:45.331Z,23.60
2022-12-05T08:01:13.874Z,22.70
2022-12-05T08:03:41.061Z,24.50
2022-12-05T08:06:10.204Z,21.17
2022-12-05T08:08:37.744Z,23.07
2022-12-05T08:11:24.753Z,22.03
2022-12-05T08:13:51.885Z,22.70
2022-12-05T08:16:20.472Z,21.67
2022-12-05T08:18:47.763Z,21.70
2022-12-05T08:21:16.035Z,22.73
2022-12-05T08:23:43.318Z,26.47
2022-12-05T08:26:12.014Z,22.33
2022-12-05T08:28:39.091Z,22.20
2022-12-05T08:31:09.447Z,21.10
2022-12-05T08:33:36.662Z,23.30
2022-12-05T08:36:08.294Z,21.77
2022-12-05T08:38:35.835Z,24.43
2022-12-05T08:41:03.951Z,22.07
2022-12-05T08:43:31.586Z,22.37
2022-12-05T08:45:59.077Z,23.40
2022-12-05T08:48:29.393Z,20.83
2022-12-05T08:50:57.290Z,22.87
2022-12-05T08:53:24.365Z,23.83
2022-12-05T08:55:51.524Z,20.13
2022-12-05T08:58:18.594Z,22.73
2022-12-05T09:00:45.699Z,24.00
2022-12-05T09:03:13.194Z,24.57
2022-12-05T09:05:40.356Z,24.17
2022-12-05T09:08:07.456Z,22.97
2022-12-05T09:10:34.633Z,21.93
2022-12-05T09:13:01.687Z,22.60
2022-12-05T09:15:28.828Z,23.33
2022-12-05T09:17:55.979Z,22.70
2022-12-05T09:20:23.069Z,23.33
2022-12-05T09:22:50.121Z,22.17
2022-12-05T09:25:17.192Z,20.67
2022-12-05T09:27:44.301Z,21.50
2022-12-05T09:30:11.778Z,20.20
2022-12-05T09:32:38.909Z,21.57
2022-12-05T09:35:06.057Z,22.07
2022-12-05T09:37:40.573Z,23.43
2022-12-05T09:40:08.340Z,17.73
2022-12-05T09:42:39.891Z,26.07
2022-12-05T09:45:19.906Z,21.97
2022-12-05T09:47:50.392Z,22.40
2022-12-05T09:50:28.323Z,23.20
2022-12-05T09:53:04.425Z,22.03
2022-12-05T09:55:38.566Z,20.63
2022-12-05T09:58:06.312Z,19.20
2022-12-05T10:00:34.298Z,22.93
2022-12-05T10:03:04.385Z,19.87
2022-12-05T10:05:50.085Z,19.73
2022-12-05T10:08:17.293Z,18.60
2022-12-05T10:10:59.775Z,19.63
2022-12-05T10:13:32.969Z,14.90
2022-12-05T10:16:03.625Z,18.60
2022-12-05T10:18:34.751Z,15.53
2022-12-05T10:21:10.882Z,16.07
2022-12-05T10:23:58.355Z,15.07
2022-12-05T10:26:28.873Z,15.10
2022-12-05T10:29:06.544Z,15.50
2022-12-05T10:31:35.695Z,14.17
2022-12-05T10:34:21.574Z,12.97
2022-12-05T10:36:54.557Z,12.20
2022-12-05T10:39:21.628Z,14.43
2022-12-05T10:41:48.884Z,14.63
2022-12-05T10:44:16.122Z,14.20
2022-12-05T10:46:43.324Z,12.83
2022-12-05T10:49:13.697Z,11.73
2022-12-05T10:51:41.127Z,12.90
2022-12-05T10:54:15.696Z,12.40
2022-12-05T10:56:45.019Z,11.17
2022-12-05T10:59:16.488Z,11.87
2022-12-05T11:01:46.999Z,12.57
2022-12-05T11:04:20.210Z,9.07
2022-12-05T11:07:06.279Z,9.83
2022-12-05T11:09:34.573Z,8.73
2022-12-05T11:12:13.928Z,8.27
2022-12-05T11:14:41.083Z,8.93
2022-12-05T11:17:22.360Z,7.20
2022-12-05T11:19:49.446Z,8.33
2022-12-05T11:22:18.364Z,9.07
2022-12-05T11:24:45.445Z,8.13
2022-12-05T11:27:18.977Z,7.97
2022-12-05T11:29:54.205Z,7.23
2022-12-05T11:32:22.849Z,8.77
2022-12-05T11:34:57.720Z,8.73
2022-12-05T11:37:32.161Z,6.40
2022-12-05T11:40:00.225Z,8.43
2022-12-05T11:43:06.013Z,8.33
2022-12-05T11:45:44.698Z,10.13
2022-12-05T11:48:21.870Z,8.07
2022-12-05T11:51:01.351Z,8.50
2022-12-05T11:53:34.834Z,9.43
2022-12-05T11:56:12.530Z,10.53
2022-12-05T11:59:05.756Z,9.13
2022-12-05T12:01:53.172Z,9.30
2022-12-05T12:04:20.403Z,8.50
2022-12-05T12:07:02.925Z,8.50
2022-12-05T12:09:35.803Z,8.07
2022-12-05T12:12:10.968Z,8.60
2022-12-05T12:14:47.315Z,8.97
2022-12-05T12:17:21.611Z,10.07
2022-12-05T12:19:48.629Z,8.70
2022-12-05T12:22:25.139Z,9.00
2022-12-05T12:25:11.057Z,8.00
2022-12-05T12:28:02.916Z,9.27
2022-12-05T12:30:59.046Z,9.47
2022-12-05T12:33:35.318Z,6.90
2022-12-05T12:36:39.063Z,7.83
2022-12-05T12:39:19.735Z,7.97
2022-12-05T12:41:55.697Z,8.77
2022-12-05T12:44:48.521Z,9.33
2022-12-05T12:47:37.433Z,8.80
2022-12-05T12:50:12.362Z,8.23
2022-12-05T12:52:42.505Z,9.00
2022-12-05T12:55:22.609Z,8.07
2022-12-05T12:57:55.677Z,8.33
2022-12-05T13:00:27.111Z,8.97
2022-12-05T13:03:12.715Z,8.03
2022-12-05T13:05:58.960Z,7.87
2022-12-05T13:08:28.832Z,8.27
2022-12-05T13:10:56.736Z,9.23
2022-12-05T13:13:25.841Z,9.77
2022-12-05T13:15:57.254Z,10.10
2022-12-05T13:18:25.787Z,9.23
2022-12-05T13:20:57.627Z,7.17
2022-12-05T13:23:26.143Z,7.63
2022-12-05T13:25:54.754Z,7.37
2022-12-05T13:28:42.394Z,8.20
2022-12-05T13:31:10.372Z,8.67
2022-12-05T13:33:37.439Z,10.03
2022-12-05T13:36:44.351Z,8.30
2022-12-05T13:39:32.873Z,8.10
2022-12-05T13:42:15.920Z,8.73
2022-12-05T13:44:51.785Z,8.57
2022-12-05T13:47:28.529Z,7.90
2022-12-05T13:50:16.056Z,12.47
2022-12-05T13:52:49.444Z,9.37
2022-12-05T13:55:33.886Z,9.63
2022-12-05T13:58:23.091Z,11.37
2022-12-05T14:00:53.356Z,10.13
2022-12-05T14:03:35.600Z,10.27
2022-12-05T14:06:02.653Z,11.60
2022-12-05T14:08:29.830Z,10.40
2022-12-05T14:10:56.856Z,10.90
2022-12-05T14:13:23.941Z,9.87
2022-12-05T14:15:51.996Z,11.07
2022-12-05T14:18:22.151Z,12.57
2022-12-05T14:21:07.773Z,9.90
2022-12-05T14:23:44.316Z,11.00
2022-12-05T14:26:32.628Z,11.03
2022-12-05T14:29:06.111Z,11.77
2022-12-05T14:31:51.941Z,10.60
2022-12-05T14:34:25.025Z,12.03
2022-12-05T14:36:53.618Z,11.33
2022-12-05T14:39:21.563Z,10.40
2022-12-05T14:41:56.322Z,11.50
2022-12-05T14:44:24.504Z,11.20
2022-12-05T14:46:52.402Z,10.53
2022-12-05T14:49:55.003Z,11.47
2022-12-05T14:52:24.274Z,11.97
2022-12-05T14:54:53.105Z,16.40
2022-12-05T14:57:20.582Z,12.20
2022-12-05T14:59:53.628Z,13.80
2022-12-05T15:02:27.024Z,16.73
2022-12-05T15:04:59.530Z,15.30
2022-12-05T15:07:37.757Z,14.37
2022-12-05T15:10:11.381Z,11.17
2022-12-05T15:12:41.270Z,10.40
2022-12-05T15:15:17.462Z,12.20
2022-12-05T15:17:50.251Z,11.63
2022-12-05T15:20:20.334Z,16.60
2022-12-05T15:22:47.413Z,22.47
2022-12-05T15:25:28.006Z,26.37
2022-12-05T15:27:56.317Z,27.37
2022-12-05T15:30:23.522Z,30.80
2022-12-05T15:32:53.771Z,20.20
2022-12-05T15:35:26.394Z,17.87
2022-12-05T15:38:00.950Z,11.73
2022-12-05T15:40:37.113Z,9.93
2022-12-05T15:43:24.119Z,10.33
2022-12-05T15:45:51.244Z,12.00
2022-12-05T15:48:22.868Z,14.93
2022-12-05T15:50:51.931Z,23.67
2022-12-05T15:53:21.761Z,26.27
2022-12-05T15:55:50.339Z,17.20
2022-12-05T15:58:28.160Z,15.53
2022-12-05T16:00:58.354Z,19.20
2022-12-05T16:03:29.151Z,16.13
2022-12-05T16:05:59.757Z,15.23
2022-12-05T16:08:35.476Z,10.70
2022-12-05T16:11:08.188Z,12.43
2022-12-05T16:13:35.425Z,12.30
2022-12-05T16:16:02.667Z,14.33
2022-12-05T16:18:31.572Z,14.47
2022-12-05T16:20:58.756Z,12.90
2022-12-05T16:23:30.276Z,12.30
2022-12-05T16:26:16.247Z,11.37
2022-12-05T16:28:43.375Z,12.37
2022-12-05T16:31:17.746Z,11.90
2022-12-05T16:33:44.921Z,14.73
2022-12-05T16:36:13.003Z,12.13
2022-12-05T16:38:43.085Z,13.13
2022-12-05T16:41:10.642Z,13.67
2022-12-05T16:43:37.803Z,15.30
2022-12-05T16:46:14.462Z,15.03
2022-12-05T16:48:44.456Z,17.67
2022-12-05T16:51:14.676Z,13.53
2022-12-05T16:53:43.020Z,14.57
2022-12-05T16:56:30.359Z,15.40
2022-12-05T16:58:57.983Z,13.97
2022-12-05T17:01:27.045Z,13.23
2022-12-05T17:03:54.756Z,11.50
2022-12-05T17:06:23.328Z,11.37
2022-12-05T17:08:51.359Z,12.97
2022-12-05T17:11:20.415Z,18.03
2022-12-05T17:13:48.592Z,22.07
2022-12-05T17:16:17.326Z,19.17
2022-12-05T17:18:45.053Z,22.57
2022-12-05T17:21:16.648Z,19.30
2022-12-05T17:23:47.913Z,20.50
2022-12-05T17:26:16.380Z,20.23
2022-12-05T17:28:43.410Z,32.93
2022-12-05T17:31:11.404Z,19.87
2022-12-05T17:33:38.709Z,18.50
2022-12-05T17:36:05.959Z,16.03
2022-12-05T17:38:32.996Z,15.37
2022-12-05T17:41:03.880Z,16.07
2022-12-05T17:43:33.986Z,15.30
2022-12-05T17:46:01.518Z,16.57
2022-12-05T17:48:28.644Z,17.23
2022-12-05T17:50:58.684Z,14.70
2022-12-05T17:53:25.748Z,18.10
2022-12-05T17:55:52.997Z,20.73
2022-12-05T17:58:20.277Z,19.77
2022-12-05T18:00:47.604Z,19.77
2022-12-05T18:03:16.112Z,20.53
2022-12-05T18:05:43.703Z,21.70
2022-12-05T18:08:11.279Z,18.03
2022-12-05T18:10:41.211Z,20.00
2022-12-05T18:13:08.270Z,23.73
2022-12-05T18:15:40.891Z,18.60
2022-12-05T18:18:14.206Z,23.13
2022-12-05T18:20:41.297Z,20.30
2022-12-05T18:23:08.438Z,19.27
2022-12-05T18:25:35.861Z,22.70
2022-12-05T18:28:02.919Z,23.13
2022-12-05T18:30:30.171Z,24.23
2022-12-05T18:32:57.205Z,28.90
2022-12-05T18:35:40.480Z,24.00
2022-12-05T18:38:08.185Z,22.13
2022-12-05T18:40:35.268Z,21.13
2022-12-05T18:43:02.407Z,21.57
2022-12-05T18:45:29.855Z,19.73
2022-12-05T18:48:04.562Z,19.73
2022-12-05T18:50:43.422Z,22.80
2022-12-05T18:53:10.469Z,21.23
2022-12-05T18:55:58.343Z,22.67
2022-12-05T18:58:24.664Z,22.27
2022-12-05T19:00:51.901Z,19.47
2022-12-05T19:03:19.001Z,22.97
2022-12-05T19:05:46.226Z,20.77
2022-12-05T19:08:13.314Z,22.63
2022-12-05T19:10:40.636Z,24.83
2022-12-05T19:13:07.687Z,24.57
2022-12-05T19:15:34.789Z,20.60
2022-12-05T19:18:01.842Z,22.77
2022-12-05T19:20:28.939Z,20.80
2022-12-05T19:23:00.731Z,25.57
2022-12-05T19:25:29.689Z,28.83
2022-12-05T19:27:56.779Z,28.23
2022-12-05T19:30:23.897Z,29.23
2022-12-05T19:32:50.994Z,34.00
2022-12-05T19:35:18.129Z,35.43
2022-12-05T19:37:45.187Z,35.47
2022-12-05T19:40:12.502Z,30.83
2022-12-05T19:42:39.609Z,30.33
2022-12-05T19:45:09.632Z,27.80
2022-12-05T19:47:38.328Z,26.70
2022-12-05T19:50:05.648Z,26.43
2022-12-05T19:52:32.715Z,25.33
2022-12-05T19:54:59.820Z,22.10
2022-12-05T19:57:31.074Z,17.30
2022-12-05T19:59:59.028Z,16.50
2022-12-05T20:02:26.336Z,11.37
2022-12-05T20:04:53.488Z,11.33
2022-12-05T20:07:20.557Z,10.97
2022-12-05T20:09:47.899Z,9.17
2022-12-05T20:12:15.059Z,8.00
2022-12-05T20:14:42.188Z,8.30
2022-12-05T20:17:09.368Z,8.80
2022-12-05T20:19:36.627Z,7.57
2022-12-05T20:22:03.711Z,8.40
2022-12-05T20:24:30.866Z,7.93
2022-12-05T20:26:57.995Z,7.60
2022-12-05T20:29:25.071Z,7.20
2022-12-05T20:31:56.514Z,9.67
2022-12-05T20:34:23.733Z,9.17
2022-12-05T20:36:50.856Z,9.70
2022-12-05T20:39:18.706Z,8.90
2022-12-05T20:41:46.030Z,10.17
2022-12-05T20:44:15.154Z,7.80
2022-12-05T20:46:42.338Z,7.60
2022-12-05T20:49:10.107Z,7.47
2022-12-05T20:51:37.228Z,8.07
2022-12-05T20:54:06.561Z,7.93
2022-12-05T20:56:34.510Z,7.50
2022-12-05T20:59:02.696Z,7.20
2022-12-05T21:01:30.871Z,9.50
2022-12-05T21:03:58.213Z,7.40
2022-12-05T21:06:25.300Z,7.10
2022-12-05T21:08:53.166Z,7.00
2022-12-05T21:11:20.737Z,6.93
2022-12-05T21:13:47.808Z,8.00
2022-12-05T21:16:16.641Z,7.57
2022-12-05T21:18:44.087Z,7.50
2022-12-05T21:21:16.321Z,10.37
2022-12-05T21:23:43.881Z,7.63
2022-12-05T21:26:15.332Z,8.60
2022-12-05T21:28:43.055Z,8.07
2022-12-05T21:31:17.698Z,8.70
2022-12-05T21:33:47.549Z,9.00
2022-12-05T21:36:14.682Z,8.37
2022-12-05T21:38:41.887Z,8.50
2022-12-05T21:41:09.141Z,7.83
2022-12-05T21:43:36.862Z,7.33
2022-12-05T21:46:04.601Z,8.97
2022-12-05T21:48:32.067Z,17.33
2022-12-05T21:50:59.250Z,18.67
2022-12-05T21:53:26.345Z,16.57
2022-12-05T21:56:04.008Z,17.87
2022-12-05T21:58:31.060Z,19.13
2022-12-05T22:00:58.145Z,18.40
2022-12-05T22:03:25.247Z,16.03
2022-12-05T22:05:59.704Z,13.00
2022-12-05T22:08:26.871Z,10.63
2022-12-05T22:10:54.092Z,22.97
2022-12-05T22:13:21.189Z,18.60
2022-12-05T22:15:48.553Z,22.77
2022-12-05T22:18:15.758Z,22.17
2022-12-05T22:20:42.865Z,12.20
2022-12-05T22:23:13.872Z,14.03
2022-12-05T22:25:43.795Z,23.00
2022-12-05T22:28:10.873Z,20.43
2022-12-05T22:30:38.076Z,27.43
2022-12-05T22:33:05.150Z,25.73
2022-12-05T22:35:32.643Z,28.80
2022-12-05T22:37:59.684Z,19.87
2022-12-05T22:40:26.755Z,23.27
2022-12-05T22:42:53.880Z,19.53
2022-12-05T22:45:20.933Z,15.23
2022-12-05T22:47:47.988Z,35.30
2022-12-05T22:50:15.083Z,20.90
2022-12-05T22:52:42.152Z,19.77
2022-12-05T22:55:09.574Z,15.30
2022-12-05T22:57:36.744Z,12.77
2022-12-05T23:00:04.760Z,9.97
2022-12-05T23:02:31.912Z,13.50
2022-12-05T23:04:59.003Z,17.00
2022-12-05T23:07:26.119Z,11.60
2022-12-05T23:09:53.225Z,7.80
2022-12-05T23:12:20.358Z,10.00
2022-12-05T23:14:47.439Z,7.70
2022-12-05T23:17:14.583Z,8.00
2022-12-05T23:19:41.748Z,7.70
2022-12-05T23:22:08.908Z,8.30
2022-12-05T23:24:35.977Z,8.87
2022-12-05T23:27:03.102Z,6.70
2022-12-05T23:29:30.157Z,8.23
2022-12-05T23:31:57.315Z,7.30
2022-12-05T23:34:24.758Z,7.43
2022-12-05T23:36:51.917Z,8.07
2022-12-05T23:39:19.076Z,7.60
2022-12-05T23:41:46.706Z,7.43
2022-12-05T23:44:13.789Z,8.23
2022-12-05T23:46:41.176Z,8.83
2022-12-05T23:49:08.412Z,8.03
2022-12-05T23:51:39.978Z,8.73
2022-12-05T23:54:07.961Z,8.90
2022-12-05T23:56:35.625Z,7.70
2022-12-05T23:59:03.802Z,7.47
